Flight Track Log - Related Links

Times and Time Zones

All times are in EDT time to prevent confusion due to time zone crossing. See the SWA1636 flight status page for this flight to view local times or setup timezone preferences in your user account.


Time Position Orientation Groundspeed Altitude Reporting Facility
EDT Latitude Longitude Course Direction KTS MPH feet Rate Location/Type
Wed 10:28:50 AM 31.9103 -102.3344 307° West 262 302 9,800  Level Fort Worth Center
Wed 10:29:50 AM 31.9692 -102.4258 307° West 304 350 11,800 2,450 Climbing Fort Worth Center
Wed 10:30:50 AM 32.0303 -102.5200 307° West 345 397 14,700 2,750 Climbing Fort Worth Center
Wed 10:31:00 AM 32.2575 -102.7317 301° West  Level FlightAware Approximate
Wed 10:31:50 AM 32.0947 -102.6239 306° West 372 428 17,300  Level Fort Worth Center
Wed 10:32:00 AM 32.3236 -102.8511 304° West  Level FlightAware Approximate
Wed 10:32:50 AM 32.1533 -102.7181 306° West 399 459 19,700  Level Fort Worth Center
Wed 10:33:00 AM 32.3905 -102.9699 304° West  Level FlightAware Approximate
Wed 10:33:50 AM 32.2239 -102.8303 307° West 409 471 22,100  Level Fort Worth Center
Wed 10:34:50 AM 32.2942 -102.9400 307° West 415 478 24,500 2,050 Climbing Fort Worth Center
Wed 10:35:50 AM 32.3722 -103.0628 307° West 426 490 26,200 1,700 Climbing Fort Worth Center
Wed 10:36:50 AM 32.4525 -103.1761 310° West 432 497 27,900 1,700 Climbing Fort Worth Center
Wed 10:37:50 AM 32.5372 -103.2828 313° West 437 503 29,600 1,800 Climbing Fort Worth Center
Wed 10:38:50 AM 32.6261 -103.3919 314° West 450 518 31,500 1,800 Climbing Fort Worth Center
Wed 10:39:50 AM 32.7106 -103.5014 313° West 450 518 33,200 1,531 Climbing Fort Worth Center
Wed 10:41:15 AM 32.8258 -103.6450 314° West 452 520 35,200 1,551 Climbing Albuquerque Center
Wed 10:42:17 AM 32.9167 -103.7603 313° West 442 509 37,000 1,355 Climbing Albuquerque Center
Wed 10:43:19 AM 33.0042 -103.8750 312° West 437 503 38,000 484 Climbing Albuquerque Center
Wed 10:44:21 AM 33.0875 -103.9800 313° West 435 501 38,000  Level Albuquerque Center
Wed 10:45:23 AM 33.1689 -104.0861 313° West 435 501 38,000  Level Albuquerque Center
Wed 10:46:25 AM 33.2567 -104.2014 312° West 436 502 38,000  Level Albuquerque Center
Wed 10:47:27 AM 33.3381 -104.3056 313° West 432 497 38,000  Level Albuquerque Center
Wed 10:48:29 AM 33.4161 -104.4147 311° West 445 512 38,000  Level Albuquerque Center
Wed 10:49:31 AM 33.5136 -104.5369 314° West 441 507 38,000  Level Albuquerque Center
Wed 10:50:33 AM 33.5942 -104.6450 312° West 438 504 38,000  Level Albuquerque Center
Wed 10:51:35 AM 33.6756 -104.7547 312° West 443 510 38,000  Level Albuquerque Center
Wed 10:52:37 AM 33.7642 -104.8714 312° West 440 506 38,000  Level Albuquerque Center
Wed 10:53:39 AM 33.8469 -104.9811 312° West 445 512 38,000  Level Albuquerque Center
Wed 10:54:41 AM 33.9372 -105.1017 312° West 450 518 38,000  Level Albuquerque Center
Wed 10:55:43 AM 34.0194 -105.2119 312° West 446 513 38,000  Level Albuquerque Center
Wed 10:56:45 AM 34.1056 -105.3253 313° West 444 511 38,000  Level Albuquerque Center
Wed 10:57:47 AM 34.1883 -105.4364 312° West 442 509 38,000  Level Albuquerque Center
Wed 10:58:49 AM 34.2694 -105.5472 312° West 440 506 38,000  Level Albuquerque Center
Wed 10:59:51 AM 34.3519 -105.6589 312° West 439 505 38,000  Level Albuquerque Center
Wed 11:00:53 AM 34.3917 -105.7989 289° West 438 504 38,000  Level Albuquerque Center
Wed 11:01:55 AM 34.4183 -105.9397 283° West 430 495 38,000  Level Albuquerque Center
Wed 11:02:57 AM 34.4511 -106.1081 283° West 433 498 38,000  Level Albuquerque Center
Wed 11:03:59 AM 34.4722 -106.2264 282° West 432 497 38,000  Level Albuquerque Center
Wed 11:05:01 AM 34.5036 -106.3992 282° West 435 501 38,000  Level Albuquerque Center
Wed 11:06:03 AM 34.5308 -106.5417 283° West 434 499 38,000  Level Albuquerque Center
Wed 11:07:05 AM 34.5575 -106.6817 283° West 429 494 38,000  Level Albuquerque Center
Wed 11:08:07 AM 34.5831 -106.8261 282° West 432 497 38,000  Level Albuquerque Center
Wed 11:09:09 AM 34.6100 -106.9719 283° West 439 505 38,000  Level Albuquerque Center
Wed 11:10:11 AM 34.6361 -107.1156 282° West 434 499 38,000  Level Albuquerque Center
Wed 11:11:13 AM 34.6625 -107.2586 283° West 432 497 38,000  Level Albuquerque Center
Wed 11:12:15 AM 34.6925 -107.4311 282° West 432 497 38,000  Level Albuquerque Center
Wed 11:13:17 AM 34.7142 -107.5447 283° West 431 496 38,000  Level Albuquerque Center
Wed 11:14:20 AM 34.7444 -107.7139 282° West 428 493 38,000  Level Albuquerque Center
Wed 11:15:22 AM 34.7692 -107.8564 282° West 429 494 38,000  Level Albuquerque Center
Wed 11:16:24 AM 34.7947 -107.9975 282° West 427 491 38,000  Level Albuquerque Center
Wed 11:17:26 AM 34.8189 -108.1381 282° West 426 490 38,000  Level Albuquerque Center
Wed 11:18:28 AM 34.8481 -108.3056 282° West 427 491 38,000  Level Albuquerque Center
Wed 11:19:30 AM 34.8714 -108.4408 282° West 427 491 38,000  Level Albuquerque Center
Wed 11:20:32 AM 34.8986 -108.5997 282° West 428 493 38,000  Level Albuquerque Center
Wed 11:21:34 AM 34.9214 -108.7361 282° West 428 493 38,000  Level Albuquerque Center
Wed 11:22:36 AM 34.9444 -108.8711 282° West 426 490 38,000  Level Albuquerque Center
Wed 11:23:38 AM 34.9703 -109.0306 281° West 427 491 38,000  Level Albuquerque Center
Wed 11:24:40 AM 34.9939 -109.1664 282° West 427 491 38,000  Level Albuquerque Center
Wed 11:25:42 AM 35.0189 -109.3261 281° West 428 493 38,000  Level Albuquerque Center
Wed 11:26:44 AM 35.0414 -109.4622 281° West 427 491 38,000  Level Albuquerque Center
Wed 11:27:46 AM 35.0669 -109.6175 281° West 420 483 38,000  Level Albuquerque Center
Wed 11:28:48 AM 35.0881 -109.7556 281° West 426 490 38,000  Level Albuquerque Center
Wed 11:29:50 AM 35.1156 -109.9172 282° West 432 497 38,000  Level Albuquerque Center
Wed 11:30:52 AM 35.1358 -110.0525 280° West 427 491 38,000  Level Albuquerque Center
Wed 11:31:54 AM 35.1758 -110.2022 288° West 426 490 38,000  Level Albuquerque Center
Wed 11:32:56 AM 35.2233 -110.3244 295° West 421 484 38,000  Level Albuquerque Center
Wed 11:33:58 AM 35.2728 -110.4494 296° West 423 487 38,000  Level Albuquerque Center
Wed 11:35:00 AM 35.3306 -110.5950 296° West 425 489 38,000  Level Albuquerque Center
Wed 11:36:02 AM 35.3803 -110.7206 296° West 427 491 38,000  Level Albuquerque Center
Wed 11:37:04 AM 35.4397 -110.8681 296° West 430 495 38,000  Level Albuquerque Center
Wed 11:38:06 AM 35.4731 -111.0031 287° West 435 501 38,000  Level Albuquerque Center
Wed 11:39:08 AM 35.4797 -111.1631 273° West 427 491 38,000 -1,500 Level Albuquerque Center
Wed 11:40:10 AM 35.4892 -111.3025 275° West 427 491 34,900 -3,387 Descending Albuquerque Center
Wed 11:41:12 AM 35.5000 -111.4558 275° West 440 506 31,000 -2,371 Descending Albuquerque Center
Wed 11:42:14 AM 35.5106 -111.6111 275° West 456 525 30,000 -484 Descending Albuquerque Center
Wed 11:43:16 AM 35.5214 -111.7608 275° West 449 517 30,000  Level Albuquerque Center
Wed 11:44:18 AM 35.5328 -111.9403 275° West 444 511 30,000  Level Albuquerque Center
Wed 11:45:20 AM 35.5417 -112.0856 274° West 437 503 30,000  Level Albuquerque Center
Wed 11:46:22 AM 35.5503 -112.2239 274° West 417 480 30,000  Level Albuquerque Center
Wed 11:47:23 AM 35.5597 -112.3728 275° West 436 502 30,000  Level Albuquerque Center
Wed 11:48:25 AM 35.5683 -112.5219 274° West 441 507 30,000  Level Albuquerque Center
Wed 11:49:27 AM 35.5800 -112.6986 275° West 440 506 30,000  Level Albuquerque Center
Wed 11:50:08 AM 35.5836 -112.7703 274° West 440 506 30,000  Level Los Angeles Center
Wed 11:51:11 AM 35.5942 -112.9514 274° West 440 506 30,000  Level Los Angeles Center
Wed 11:52:13 AM 35.6017 -113.1008 274° West 439 505 30,000 -48 Level Los Angeles Center
Wed 11:53:15 AM 35.6086 -113.2489 273° West 435 501 29,900 -1,065 Descending Los Angeles Center
Wed 11:54:17 AM 35.6169 -113.3953 274° West 413 475 27,800 -1,887 Descending Los Angeles Center
Wed 11:55:19 AM 35.6225 -113.5047 274° West 406 467 26,000 -2,160 Descending Los Angeles Center
Wed 11:56:22 AM 35.6411 -113.6636 278° West 394 453 23,300 -2,544 Descending Los Angeles Center
Wed 11:57:24 AM 35.6647 -113.8200 281° West 391 450 20,700 -2,323 Descending Los Angeles Center
Wed 11:58:26 AM 35.6817 -113.9447 280° West 380 437 18,500 -2,081 Descending Los Angeles Center
Wed 11:59:28 AM 35.6992 -114.0692 280° West 376 433 16,400 -2,158 Descending Los Angeles Center
Wed 12:00:20 PM 35.7150 -114.1942 279° West 391 450 14,400 -2,177 Descending Los Angeles Center
Wed 12:01:21 PM 35.7331 -114.3128 281° West 365 420 12,300 -1,475 Descending Los Angeles Center
Wed 12:02:22 PM 35.7819 -114.4053 303° West 342 394 11,400 -983 Descending Los Angeles Center
Wed 12:03:17 PM 35.8617 -114.4419 340° North 337 388 10,400 -724 Descending Los Angeles Center
Wed 12:04:18 PM 35.9414 -114.4789 339° North 306 352 10,000 -446 Descending Los Angeles Center
Wed 12:05:18 PM 36.0139 -114.5128 339° North 262 302 9,500 -730 Descending Los Angeles Center
Wed 12:06:13 PM 36.0439 -114.5694 303° West 248 285 8,600 -918 Descending Los Angeles Center
Wed 12:06:43 PM 36.0508 -114.5986 286° West 249 287 8,200 -590 Descending Los Angeles Center
Wed 12:07:14 PM 36.0611 -114.6567 282° West 241 277 8,000 -194 Descending Los Angeles Center
Wed 12:07:45 PM 36.0683 -114.6950 283° West 242 278 8,000  Level Los Angeles Center
Wed 12:08:15 PM 36.0747 -114.7375 281° West 240 276 8,000  Level Los Angeles Center
Wed 12:08:47 PM 36.0753 -114.7756 271° West 238 274 8,000 -655 Level Los Angeles Center
Wed 12:10:14 PM 36.0739 -114.8728 269° West 235 270 6,700 -1,200 Descending Los Angeles Center
Wed 12:11:17 PM 36.0733 -114.9664 270° West 232 267 5,000 -1,355 Descending Los Angeles Center
Wed 12:12:18 PM 36.0733 -115.0200 270° West 220 253 3,900 -1,073 Descending Los Angeles Center
Wed 12:13:20 PM 36.0733 -115.0833 270° West 180 207 2,800 -912 Descending Los Angeles Center
Wed 12:14:23 PM 36.0742 -115.1436 271° West 157 181 2,000 -762 Descending Los Angeles Center
Wed 12:16:00 PM 36.0667 -115.1500 270° West  Level FlightAware Approximate

Login

Don't have an account? Register now (free) for customized features, flight alerts, and more!